sensor_id;sensor_type;location;lat;lon;timestamp;pressure;altitude;pressure_sealevel;temperature;humidity
54816;BME280;40715;55.752;37.884;2023-03-31T00:00:35;98323.69;;;29.98;26.14
54816;BME280;40715;55.752;37.884;2023-03-31T00:03:02;98317.22;;;29.99;26.18
54816;BME280;40715;55.752;37.884;2023-03-31T00:05:37;98327.25;;;29.99;26.44
54816;BME280;40715;55.752;37.884;2023-03-31T00:08:05;98325.38;;;29.99;26.29
54816;BME280;40715;55.752;37.884;2023-03-31T00:10:33;98322.66;;;29.99;26.19
54816;BME280;40715;55.752;37.884;2023-03-31T00:13:00;98324.53;;;29.99;26.35
54816;BME280;40715;55.752;37.884;2023-03-31T00:15:28;98327.25;;;29.99;26.19
54816;BME280;40715;55.752;37.884;2023-03-31T00:17:56;98325.38;;;29.99;26.20
54816;BME280;40715;55.752;37.884;2023-03-31T00:20:26;98329.97;;;29.99;26.31
54816;BME280;40715;55.752;37.884;2023-03-31T00:22:53;98329.09;;;29.98;26.37
54816;BME280;40715;55.752;37.884;2023-03-31T00:25:20;98324.53;;;29.99;26.48
54816;BME280;40715;55.752;37.884;2023-03-31T00:27:47;98314.69;;;29.98;26.29
54816;BME280;40715;55.752;37.884;2023-03-31T00:30:16;98315.53;;;29.98;26.19
54816;BME280;40715;55.752;37.884;2023-03-31T00:32:43;98315.53;;;29.98;26.13
54816;BME280;40715;55.752;37.884;2023-03-31T00:35:10;98313.00;;;29.97;26.22
54816;BME280;40715;55.752;37.884;2023-03-31T00:37:37;98299.75;;;29.87;26.19
54816;BME280;40715;55.752;37.884;2023-03-31T00:40:04;98320.13;;;29.98;26.28
54816;BME280;40715;55.752;37.884;2023-03-31T00:42:40;98311.78;;;29.99;25.95
54816;BME280;40715;55.752;37.884;2023-03-31T00:50:35;98308.25;;;29.99;26.45
54816;BME280;40715;55.752;37.884;2023-03-31T00:53:10;98302.34;;;29.95;26.39
54816;BME280;40715;55.752;37.884;2023-03-31T00:55:44;98298.41;;;29.98;26.21
54816;BME280;40715;55.752;37.884;2023-03-31T00:58:14;98299.16;;;29.91;26.09
54816;BME280;40715;55.752;37.884;2023-03-31T01:00:49;98297.09;;;29.93;26.27
54816;BME280;40715;55.752;37.884;2023-03-31T01:03:21;98295.22;;;29.94;26.15
54816;BME280;40715;55.752;37.884;2023-03-31T01:05:55;98288.78;;;29.95;26.35
54816;BME280;40715;55.752;37.884;2023-03-31T01:08:25;98290.84;;;29.93;26.04
54816;BME280;40715;55.752;37.884;2023-03-31T01:10:56;98288.13;;;29.93;26.14
54816;BME280;40715;55.752;37.884;2023-03-31T01:13:25;98279.78;;;29.94;26.35
54816;BME280;40715;55.752;37.884;2023-03-31T01:15:53;98274.56;;;29.93;26.13
54816;BME280;40715;55.752;37.884;2023-03-31T01:18:20;98271.84;;;29.93;26.16
54816;BME280;40715;55.752;37.884;2023-03-31T01:24:02;98282.66;;;30.08;26.17
54816;BME280;40715;55.752;37.884;2023-03-31T01:46:01;98258.78;;;30.03;25.94
54816;BME280;40715;55.752;37.884;2023-03-31T01:49:36;98257.59;;;29.91;26.09
54816;BME280;40715;55.752;37.884;2023-03-31T01:54:21;98258.63;;;29.90;26.20
54816;BME280;40715;55.752;37.884;2023-03-31T01:56:55;98253.88;;;29.92;25.94
54816;BME280;40715;55.752;37.884;2023-03-31T01:59:37;98256.38;;;29.93;26.12
54816;BME280;40715;55.752;37.884;2023-03-31T02:04:45;98246.09;;;29.89;26.14
54816;BME280;40715;55.752;37.884;2023-03-31T02:07:18;98242.53;;;29.88;26.08
54816;BME280;40715;55.752;37.884;2023-03-31T02:09:49;98233.75;;;29.86;26.02
54816;BME280;40715;55.752;37.884;2023-03-31T02:12:20;98240.69;;;29.89;26.12
54816;BME280;40715;55.752;37.884;2023-03-31T02:14:51;98245.44;;;29.87;25.96
54816;BME280;40715;55.752;37.884;2023-03-31T02:17:23;98233.44;;;29.81;25.97
54816;BME280;40715;55.752;37.884;2023-03-31T02:19:58;98253.88;;;29.92;26.37
54816;BME280;40715;55.752;37.884;2023-03-31T02:22:31;98248.16;;;29.87;26.11
54816;BME280;40715;55.752;37.884;2023-03-31T02:25:01;98246.09;;;29.89;26.17
54816;BME280;40715;55.752;37.884;2023-03-31T02:27:35;98257.78;;;29.89;26.16
54816;BME280;40715;55.752;37.884;2023-03-31T02:30:06;98256.38;;;29.93;26.39
54816;BME280;40715;55.752;37.884;2023-03-31T02:32:41;98269.97;;;29.93;26.13
54816;BME280;40715;55.752;37.884;2023-03-31T02:35:11;98266.78;;;29.90;25.94
54816;BME280;40715;55.752;37.884;2023-03-31T02:37:39;98269.69;;;29.88;26.06
54816;BME280;40715;55.752;37.884;2023-03-31T02:40:18;98259.72;;;29.95;25.95
54816;BME280;40715;55.752;37.884;2023-03-31T02:42:47;98261.34;;;29.90;26.08
54816;BME280;40715;55.752;37.884;2023-03-31T02:45:46;98254.19;;;30.04;26.17
54816;BME280;40715;55.752;37.884;2023-03-31T02:48:30;98262.72;;;30.01;26.25
54816;BME280;40715;55.752;37.884;2023-03-31T03:08:23;98294.41;;;29.93;27.68
54816;BME280;40715;55.752;37.884;2023-03-31T03:11:03;98296.09;;;29.94;27.88
54816;BME280;40715;55.752;37.884;2023-03-31T03:16:11;98264.59;;;30.00;27.68
54816;BME280;40715;55.752;37.884;2023-03-31T03:19:02;98252.88;;;30.00;27.71
54816;BME280;40715;55.752;37.884;2023-03-31T03:21:29;98240.53;;;29.97;27.90
54816;BME280;40715;55.752;37.884;2023-03-31T03:23:57;98225.50;;;29.94;27.53
54816;BME280;40715;55.752;37.884;2023-03-31T03:26:25;98210.03;;;29.95;27.66
54816;BME280;40715;55.752;37.884;2023-03-31T03:28:55;98222.59;;;29.96;27.35
54816;BME280;40715;55.752;37.884;2023-03-31T03:31:22;98215.94;;;29.99;27.59
54816;BME280;40715;55.752;37.884;2023-03-31T03:33:52;98214.88;;;30.00;27.56
54816;BME280;40715;55.752;37.884;2023-03-31T03:36:19;98204.22;;;29.98;27.46
54816;BME280;40715;55.752;37.884;2023-03-31T03:38:47;98194.22;;;29.99;27.65
54816;BME280;40715;55.752;37.884;2023-03-31T03:41:14;98194.84;;;30.01;27.51
54816;BME280;40715;55.752;37.884;2023-03-31T03:43:41;98204.88;;;30.00;27.44
54816;BME280;40715;55.752;37.884;2023-03-31T03:46:08;98208.41;;;30.01;27.20
54816;BME280;40715;55.752;37.884;2023-03-31T03:48:35;98209.25;;;30.01;27.53
54816;BME280;40715;55.752;37.884;2023-03-31T03:51:02;98207.94;;;29.97;27.37
54816;BME280;40715;55.752;37.884;2023-03-31T03:53:29;98210.94;;;30.02;27.29
54816;BME280;40715;55.752;37.884;2023-03-31T03:55:56;98209.06;;;30.03;27.37
54816;BME280;40715;55.752;37.884;2023-03-31T03:58:25;98217.19;;;30.03;27.27
54816;BME280;40715;55.752;37.884;2023-03-31T04:00:51;98224.31;;;30.04;27.18
54816;BME280;40715;55.752;37.884;2023-03-31T04:03:18;98210.75;;;30.04;27.29
54816;BME280;40715;55.752;37.884;2023-03-31T04:05:46;98203.19;;;29.99;27.43
54816;BME280;40715;55.752;37.884;2023-03-31T04:08:18;98182.59;;;29.90;27.37
54816;BME280;40715;55.752;37.884;2023-03-31T04:10:46;98209.25;;;30.01;27.18
54816;BME280;40715;55.752;37.884;2023-03-31T04:13:15;98203.81;;;30.01;27.12
54816;BME280;40715;55.752;37.884;2023-03-31T04:15:42;98209.25;;;30.01;27.19
54816;BME280;40715;55.752;37.884;2023-03-31T04:18:10;98207.38;;;30.02;27.20
54816;BME280;40715;55.752;37.884;2023-03-31T04:20:44;98188.38;;;30.02;27.09
54816;BME280;40715;55.752;37.884;2023-03-31T04:23:11;98181.91;;;30.03;27.12
54816;BME280;40715;55.752;37.884;2023-03-31T04:25:40;98187.31;;;30.03;27.05
54816;BME280;40715;55.752;37.884;2023-03-31T04:28:11;98180.03;;;30.03;27.17
54816;BME280;40715;55.752;37.884;2023-03-31T04:30:40;98191.72;;;30.04;26.89
54816;BME280;40715;55.752;37.884;2023-03-31T04:33:07;98191.94;;;30.02;27.00
54816;BME280;40715;55.752;37.884;2023-03-31T04:35:34;98182.09;;;30.01;26.77
54816;BME280;40715;55.752;37.884;2023-03-31T04:38:15;98192.75;;;30.03;26.82
54816;BME280;40715;55.752;37.884;2023-03-31T04:40:47;98186.50;;;30.02;26.69
54816;BME280;40715;55.752;37.884;2023-03-31T04:43:17;98188.38;;;30.02;26.78
54816;BME280;40715;55.752;37.884;2023-03-31T04:45:45;98189.84;;;30.04;27.13
54816;BME280;40715;55.752;37.884;2023-03-31T04:48:12;98199.69;;;30.05;26.85
54816;BME280;40715;55.752;37.884;2023-03-31T04:50:39;98202.41;;;30.05;26.58
54816;BME280;40715;55.752;37.884;2023-03-31T04:53:06;98191.53;;;30.05;26.76
54816;BME280;40715;55.752;37.884;2023-03-31T04:55:34;98188.00;;;30.05;26.46
54816;BME280;40715;55.752;37.884;2023-03-31T04:58:01;98186.75;;;30.07;26.75
54816;BME280;40715;55.752;37.884;2023-03-31T05:00:29;98204.09;;;30.06;26.46
54816;BME280;40715;55.752;37.884;2023-03-31T05:02:56;98196.75;;;30.07;26.65
54816;BME280;40715;55.752;37.884;2023-03-31T05:05:23;98198.66;;;30.06;26.62
54816;BME280;40715;55.752;37.884;2023-03-31T05:07:51;98194.63;;;30.02;26.46
54816;BME280;40715;55.752;37.884;2023-03-31T05:10:18;98203.25;;;30.06;26.36
54816;BME280;40715;55.752;37.884;2023-03-31T05:12:45;98204.28;;;30.05;26.43
54816;BME280;40715;55.752;37.884;2023-03-31T05:15:12;98199.88;;;30.04;26.59
54816;BME280;40715;55.752;37.884;2023-03-31T05:17:38;98201.75;;;30.03;26.46
54816;BME280;40715;55.752;37.884;2023-03-31T05:20:06;98194.44;;;30.04;26.69
54816;BME280;40715;55.752;37.884;2023-03-31T05:22:38;98184.59;;;30.03;26.46
54816;BME280;40715;55.752;37.884;2023-03-31T05:25:08;98187.31;;;30.03;26.29
54816;BME280;40715;55.752;37.884;2023-03-31T05:27:36;98175.84;;;30.01;26.51
54816;BME280;40715;55.752;37.884;2023-03-31T05:30:03;98163.28;;;30.00;26.50
54816;BME280;40715;55.752;37.884;2023-03-31T05:32:31;98171.03;;;30.03;26.27
54816;BME280;40715;55.752;37.884;2023-03-31T05:34:58;98162.88;;;30.03;26.56
54816;BME280;40715;55.752;37.884;2023-03-31T05:37:25;98168.50;;;30.01;26.50
54816;BME280;40715;55.752;37.884;2023-03-31T05:39:52;98169.56;;;30.00;26.74
54816;BME280;40715;55.752;37.884;2023-03-31T05:42:19;98155.78;;;30.02;26.44
54816;BME280;40715;55.752;37.884;2023-03-31T05:44:47;98148.88;;;29.99;26.51
54816;BME280;40715;55.752;37.884;2023-03-31T05:47:14;98151.41;;;30.01;26.50
54816;BME280;40715;55.752;37.884;2023-03-31T05:49:41;98142.41;;;30.00;26.54
54816;BME280;40715;55.752;37.884;2023-03-31T05:52:10;98138.00;;;29.99;26.63
54816;BME280;40715;55.752;37.884;2023-03-31T05:54:37;98130.69;;;30.00;26.68
54816;BME280;40715;55.752;37.884;2023-03-31T05:57:04;98130.91;;;29.98;26.31
54816;BME280;40715;55.752;37.884;2023-03-31T05:59:31;98129.88;;;29.99;26.59
54816;BME280;40715;55.752;37.884;2023-03-31T06:02:01;98124.63;;;29.98;26.51
54816;BME280;40715;55.752;37.884;2023-03-31T06:04:29;98129.03;;;29.99;26.75
54816;BME280;40715;55.752;37.884;2023-03-31T06:06:58;98123.63;;;29.99;26.58
54816;BME280;40715;55.752;37.884;2023-03-31T06:09:25;98127.34;;;29.98;26.73
54816;BME280;40715;55.752;37.884;2023-03-31T06:11:54;98133.94;;;29.88;26.76
54816;BME280;40715;55.752;37.884;2023-03-31T06:14:22;98134.63;;;29.97;26.80
54816;BME280;40715;55.752;37.884;2023-03-31T06:16:49;98130.47;;;29.94;26.80
54816;BME280;40715;55.752;37.884;2023-03-31T06:19:16;98130.28;;;29.96;26.50
54816;BME280;40715;55.752;37.884;2023-03-31T06:21:43;98126.69;;;29.95;26.48
54816;BME280;40715;55.752;37.884;2023-03-31T06:24:10;98124.84;;;29.96;26.33
54816;BME280;40715;55.752;37.884;2023-03-31T06:26:37;98135.69;;;29.96;26.42
54816;BME280;40715;55.752;37.884;2023-03-31T06:29:04;98142.16;;;29.95;26.74
54816;BME280;40715;55.752;37.884;2023-03-31T06:31:31;98147.38;;;29.97;26.48
54816;BME280;40715;55.752;37.884;2023-03-31T06:33:59;98152.00;;;29.96;26.69
54816;BME280;40715;55.752;37.884;2023-03-31T06:36:26;98139.44;;;29.95;26.55
54816;BME280;40715;55.752;37.884;2023-03-31T06:38:53;98136.53;;;29.97;26.59
54816;BME280;40715;55.752;37.884;2023-03-31T06:41:20;98142.97;;;29.95;26.72
54816;BME280;40715;55.752;37.884;2023-03-31T06:43:48;98143.19;;;29.94;26.92
54816;BME280;40715;55.752;37.884;2023-03-31T06:46:15;98146.56;;;29.96;26.78
54816;BME280;40715;55.752;37.884;2023-03-31T06:48:42;98142.34;;;29.93;26.64
54816;BME280;40715;55.752;37.884;2023-03-31T06:51:09;98151.13;;;29.95;26.29
54816;BME280;40715;55.752;37.884;2023-03-31T06:53:36;98141.31;;;29.94;26.80
54816;BME280;40715;55.752;37.884;2023-03-31T06:56:04;98138.81;;;29.93;26.84
54816;BME280;40715;55.752;37.884;2023-03-31T06:58:32;98126.06;;;29.93;26.57
54816;BME280;40715;55.752;37.884;2023-03-31T07:01:02;98119.59;;;29.94;26.66
54816;BME280;40715;55.752;37.884;2023-03-31T07:03:30;98110.59;;;29.94;26.72
54816;BME280;40715;55.752;37.884;2023-03-31T07:05:58;98117.91;;;29.93;26.49
54816;BME280;40715;55.752;37.884;2023-03-31T07:08:25;98121.47;;;29.94;26.42
54816;BME280;40715;55.752;37.884;2023-03-31T07:10:57;98114.19;;;29.94;26.69
54816;BME280;40715;55.752;37.884;2023-03-31T07:13:25;98102.78;;;29.84;26.85
54816;BME280;40715;55.752;37.884;2023-03-31T07:15:53;98126.88;;;29.94;26.43
54816;BME280;40715;55.752;37.884;2023-03-31T07:18:20;98118.75;;;29.94;26.62
54816;BME280;40715;55.752;37.884;2023-03-31T07:20:51;98113.31;;;29.94;26.47
54816;BME280;40715;55.752;37.884;2023-03-31T07:23:19;98106.41;;;29.91;26.80
54816;BME280;40715;55.752;37.884;2023-03-31T07:25:46;98103.69;;;29.91;26.53
54816;BME280;40715;55.752;37.884;2023-03-31T07:28:14;98108.28;;;29.91;26.57
54816;BME280;40715;55.752;37.884;2023-03-31T07:30:41;98104.34;;;29.93;26.76
54816;BME280;40715;55.752;37.884;2023-03-31T07:33:08;98110.81;;;29.92;26.35
54816;BME280;40715;55.752;37.884;2023-03-31T07:35:40;98110.59;;;29.94;26.72
54816;BME280;40715;55.752;37.884;2023-03-31T07:38:10;98107.25;;;29.92;26.66
54816;BME280;40715;55.752;37.884;2023-03-31T07:40:38;98119.97;;;29.91;26.62
54816;BME280;40715;55.752;37.884;2023-03-31T07:43:06;98116.44;;;29.91;26.60
54816;BME280;40715;55.752;37.884;2023-03-31T07:45:34;98119.97;;;29.91;26.46
54816;BME280;40715;55.752;37.884;2023-03-31T07:48:01;98126.88;;;29.94;26.70
54816;BME280;40715;55.752;37.884;2023-03-31T07:50:28;98082.84;;;29.77;26.49
54816;BME280;40715;55.752;37.884;2023-03-31T07:52:56;98099.50;;;29.89;26.31
54816;BME280;40715;55.752;37.884;2023-03-31T07:55:23;98107.44;;;29.90;26.60
54816;BME280;40715;55.752;37.884;2023-03-31T07:57:51;98108.28;;;29.91;26.53
54816;BME280;40715;55.752;37.884;2023-03-31T08:00:19;98099.31;;;29.90;26.30
54816;BME280;40715;55.752;37.884;2023-03-31T08:02:46;98103.69;;;29.91;26.44
54816;BME280;40715;55.752;37.884;2023-03-31T08:05:15;98110.16;;;29.90;26.44
54816;BME280;40715;55.752;37.884;2023-03-31T08:07:45;98101.16;;;29.90;26.28
54816;BME280;40715;55.752;37.884;2023-03-31T08:10:16;98098.44;;;29.90;26.44
54816;BME280;40715;55.752;37.884;2023-03-31T08:12:44;98102.84;;;29.91;26.56
54816;BME280;40715;55.752;37.884;2023-03-31T08:15:12;98084.16;;;29.81;26.35
54816;BME280;40715;55.752;37.884;2023-03-31T08:17:39;98084.44;;;29.86;26.55
54816;BME280;40715;55.752;37.884;2023-03-31T08:20:07;98076.31;;;29.86;26.30
54816;BME280;40715;55.752;37.884;2023-03-31T08:22:39;98072.34;;;29.89;26.54
54816;BME280;40715;55.752;37.884;2023-03-31T08:25:07;98071.69;;;29.87;26.63
54816;BME280;40715;55.752;37.884;2023-03-31T08:27:38;98069.66;;;29.89;26.65
54816;BME280;40715;55.752;37.884;2023-03-31T08:30:10;98068.38;;;29.91;26.38
54816;BME280;40715;55.752;37.884;2023-03-31T08:32:37;98063.16;;;29.90;26.54
54816;BME280;40715;55.752;37.884;2023-03-31T08:35:05;98067.13;;;29.87;26.68
54816;BME280;40715;55.752;37.884;2023-03-31T08:37:32;98051.66;;;29.88;26.51
54816;BME280;40715;55.752;37.884;2023-03-31T08:39:59;98050.63;;;29.89;26.42
54816;BME280;40715;55.752;37.884;2023-03-31T08:47:56;98049.00;;;29.94;26.25
54816;BME280;40715;55.752;37.884;2023-03-31T08:50:29;98046.03;;;29.89;26.41
54816;BME280;40715;55.752;37.884;2023-03-31T08:53:07;98034.97;;;29.91;26.60
54816;BME280;40715;55.752;37.884;2023-03-31T08:56:06;98038.03;;;30.09;26.21
54816;BME280;40715;55.752;37.884;2023-03-31T08:58:44;98035.81;;;29.91;26.20
54816;BME280;40715;55.752;37.884;2023-03-31T09:07:13;98033.44;;;30.10;26.07
54816;BME280;40715;55.752;37.884;2023-03-31T09:12:14;98025.94;;;29.84;26.38
54816;BME280;40715;55.752;37.884;2023-03-31T09:15:10;98026.75;;;30.06;26.39
54816;BME280;40715;55.752;37.884;2023-03-31T09:17:43;98024.72;;;29.86;26.29
54816;BME280;40715;55.752;37.884;2023-03-31T09:20:15;98030.34;;;29.85;26.58
54816;BME280;40715;55.752;37.884;2023-03-31T09:25:43;98015.09;;;29.84;26.12
54816;BME280;40715;55.752;37.884;2023-03-31T09:28:30;98012.03;;;29.93;26.42
54816;BME280;40715;55.752;37.884;2023-03-31T09:31:05;98005.53;;;29.88;26.03
54816;BME280;40715;55.752;37.884;2023-03-31T09:33:36;98004.84;;;29.86;26.18
54816;BME280;40715;55.752;37.884;2023-03-31T09:36:17;98016.19;;;29.89;26.05
54816;BME280;40715;55.752;37.884;2023-03-31T09:38:46;98003.84;;;29.87;26.16
54816;BME280;40715;55.752;37.884;2023-03-31T09:41:15;98000.69;;;29.83;26.24
54816;BME280;40715;55.752;37.884;2023-03-31T09:43:45;98000.69;;;29.83;26.26
54816;BME280;40715;55.752;37.884;2023-03-31T09:46:28;98001.38;;;29.92;26.35
54816;BME280;40715;55.752;37.884;2023-03-31T09:49:13;97998.50;;;30.00;26.33
54816;BME280;40715;55.752;37.884;2023-03-31T09:51:44;97991.13;;;29.87;26.15
54816;BME280;40715;55.752;37.884;2023-03-31T09:57:12;97978.78;;;29.91;26.48
54816;BME280;40715;55.752;37.884;2023-03-31T09:59:41;97970.63;;;29.85;26.38
54816;BME280;40715;55.752;37.884;2023-03-31T10:02:27;97975.06;;;29.92;26.42
54816;BME280;40715;55.752;37.884;2023-03-31T10:04:56;97973.16;;;29.86;25.99
54816;BME280;40715;55.752;37.884;2023-03-31T10:07:24;97963.50;;;29.84;26.46
54816;BME280;40715;55.752;37.884;2023-03-31T10:09:53;97970.63;;;29.85;26.25
54816;BME280;40715;55.752;37.884;2023-03-31T10:12:24;97969.78;;;29.84;26.44
54816;BME280;40715;55.752;37.884;2023-03-31T10:14:54;97955.38;;;29.84;26.10
54816;BME280;40715;55.752;37.884;2023-03-31T10:17:31;97954.53;;;29.83;26.01
54816;BME280;40715;55.752;37.884;2023-03-31T10:20:30;97965.22;;;29.91;26.42
54816;BME280;40715;55.752;37.884;2023-03-31T10:23:28;97971.06;;;29.88;26.26
54816;BME280;40715;55.752;37.884;2023-03-31T10:25:58;97976.88;;;29.85;26.36
54816;BME280;40715;55.752;37.884;2023-03-31T10:28:26;97976.06;;;29.85;26.17
54816;BME280;40715;55.752;37.884;2023-03-31T10:30:58;97969.94;;;29.83;26.31
54816;BME280;40715;55.752;37.884;2023-03-31T10:33:30;97964.34;;;29.84;26.18
54816;BME280;40715;55.752;37.884;2023-03-31T10:36:21;97970.09;;;30.03;26.29
54816;BME280;40715;55.752;37.884;2023-03-31T10:38:51;97968.34;;;29.88;26.21
54816;BME280;40715;55.752;37.884;2023-03-31T10:41:23;97960.41;;;29.87;26.45
54816;BME280;40715;55.752;37.884;2023-03-31T10:43:54;97960.41;;;29.87;26.59
54816;BME280;40715;55.752;37.884;2023-03-31T10:46:47;97955.50;;;30.04;26.67
54816;BME280;40715;55.752;37.884;2023-03-31T10:51:55;97948.50;;;29.88;26.51
54816;BME280;40715;55.752;37.884;2023-03-31T10:54:22;97956.44;;;29.89;26.27
54816;BME280;40715;55.752;37.884;2023-03-31T10:57:08;97938.56;;;30.02;26.47
54816;BME280;40715;55.752;37.884;2023-03-31T11:08:18;97912.88;;;30.04;26.19
54816;BME280;40715;55.752;37.884;2023-03-31T11:11:06;97910.56;;;29.94;26.20
54816;BME280;40715;55.752;37.884;2023-03-31T11:19:41;97897.41;;;29.98;26.20
54816;BME280;40715;55.752;37.884;2023-03-31T11:22:30;97901.38;;;30.02;26.44
54816;BME280;40715;55.752;37.884;2023-03-31T11:31:17;97891.34;;;29.96;27.01
54816;BME280;40715;55.752;37.884;2023-03-31T11:36:39;97882.91;;;29.84;27.24
54816;BME280;40715;55.752;37.884;2023-03-31T11:41:57;97878.19;;;30.00;27.60
54816;BME280;40715;55.752;37.884;2023-03-31T11:44:30;97872.50;;;29.88;27.24
54816;BME280;40715;55.752;37.884;2023-03-31T11:47:06;97872.50;;;29.88;27.58
54816;BME280;40715;55.752;37.884;2023-03-31T11:49:38;97872.50;;;29.88;27.81
54816;BME280;40715;55.752;37.884;2023-03-31T11:54:42;97864.34;;;29.88;27.70
54816;BME280;40715;55.752;37.884;2023-03-31T11:57:24;97869.63;;;29.96;27.80
54816;BME280;40715;55.752;37.884;2023-03-31T12:00:02;97871.47;;;29.89;27.96
54816;BME280;40715;55.752;37.884;2023-03-31T12:05:26;97872.75;;;29.93;28.19
54816;BME280;40715;55.752;37.884;2023-03-31T12:08:01;97860.16;;;29.85;28.04
54816;BME280;40715;55.752;37.884;2023-03-31T12:10:34;97866.25;;;29.94;27.66
54816;BME280;40715;55.752;37.884;2023-03-31T12:19:07;97862.34;;;30.10;27.51
54816;BME280;40715;55.752;37.884;2023-03-31T12:21:43;97859.34;;;29.91;27.63
54816;BME280;40715;55.752;37.884;2023-03-31T12:24:13;97848.06;;;29.88;27.90
54816;BME280;40715;55.752;37.884;2023-03-31T12:26:52;97854.78;;;29.92;27.52
54816;BME280;40715;55.752;37.884;2023-03-31T12:29:33;97855.81;;;29.91;27.42
54816;BME280;40715;55.752;37.884;2023-03-31T12:32:06;97837.81;;;29.83;27.62
54816;BME280;40715;55.752;37.884;2023-03-31T12:34:42;97836.19;;;29.89;27.55
54816;BME280;40715;55.752;37.884;2023-03-31T12:40:35;97835.38;;;29.95;27.96
54816;BME280;40715;55.752;37.884;2023-03-31T12:43:16;97833.06;;;29.92;27.67
54816;BME280;40715;55.752;37.884;2023-03-31T12:56:20;97819.31;;;30.00;27.63
54816;BME280;40715;55.752;37.884;2023-03-31T12:58:47;97820.13;;;30.01;27.56
54816;BME280;40715;55.752;37.884;2023-03-31T13:01:15;97817.22;;;30.02;27.49
54816;BME280;40715;55.752;37.884;2023-03-31T13:03:51;97813.88;;;30.00;27.52
54816;BME280;40715;55.752;37.884;2023-03-31T13:11:46;97811.63;;;30.24;27.24
54816;BME280;40715;55.752;37.884;2023-03-31T13:14:21;97818.72;;;30.11;27.29
54816;BME280;40715;55.752;37.884;2023-03-31T13:16:49;97816.19;;;30.10;26.97
54816;BME280;40715;55.752;37.884;2023-03-31T13:19:39;97810.19;;;30.28;27.11
54816;BME280;40715;55.752;37.884;2023-03-31T13:24:53;97798.88;;;30.18;26.86
54816;BME280;40715;55.752;37.884;2023-03-31T13:27:29;97796.38;;;30.23;26.93
54816;BME280;40715;55.752;37.884;2023-03-31T13:29:58;97790.13;;;30.22;27.04
54816;BME280;40715;55.752;37.884;2023-03-31T13:32:25;97791.56;;;30.18;26.82
54816;BME280;40715;55.752;37.884;2023-03-31T13:35:03;97785.34;;;30.24;26.86
54816;BME280;40715;55.752;37.884;2023-03-31T13:37:51;97777.81;;;30.26;26.94
54816;BME280;40715;55.752;37.884;2023-03-31T13:51:57;97774.31;;;30.46;26.59
54816;BME280;40715;55.752;37.884;2023-03-31T13:54:49;97773.25;;;30.47;26.68
54816;BME280;40715;55.752;37.884;2023-03-31T13:57:34;97779.47;;;30.34;26.67
54816;BME280;40715;55.752;37.884;2023-03-31T14:00:23;97776.41;;;30.44;26.88
54816;BME280;40715;55.752;37.884;2023-03-31T14:11:33;97769.91;;;30.58;26.49
54816;BME280;40715;55.752;37.884;2023-03-31T14:14:25;97760.06;;;30.37;26.92
54816;BME280;40715;55.752;37.884;2023-03-31T14:17:00;97766.38;;;30.44;26.82
54816;BME280;40715;55.752;37.884;2023-03-31T14:19:57;97762.59;;;30.45;26.64
54816;BME280;40715;55.752;37.884;2023-03-31T14:33:35;97765.56;;;30.57;26.53
54816;BME280;40715;55.752;37.884;2023-03-31T14:36:25;97754.91;;;30.56;26.60
54816;BME280;40715;55.752;37.884;2023-03-31T14:39:01;97759.88;;;30.45;26.24
54816;BME280;40715;55.752;37.884;2023-03-31T14:41:29;97749.44;;;30.42;26.41
54816;BME280;40715;55.752;37.884;2023-03-31T14:44:00;97755.47;;;30.38;26.35
54816;BME280;40715;55.752;37.884;2023-03-31T14:46:30;97759.88;;;30.39;26.42
54816;BME280;40715;55.752;37.884;2023-03-31T14:49:18;97750.66;;;30.40;26.33
54816;BME280;40715;55.752;37.884;2023-03-31T14:51:47;97756.72;;;30.42;25.90
54816;BME280;40715;55.752;37.884;2023-03-31T14:54:18;97759.22;;;30.37;25.87
54816;BME280;40715;55.752;37.884;2023-03-31T14:56:50;97742.06;;;30.29;25.94
54816;BME280;40715;55.752;37.884;2023-03-31T14:59:25;97757.34;;;30.37;26.27
54816;BME280;40715;55.752;37.884;2023-03-31T15:01:55;97754.41;;;30.32;26.16
54816;BME280;40715;55.752;37.884;2023-03-31T15:04:25;97753.38;;;30.33;26.08
54816;BME280;40715;55.752;37.884;2023-03-31T15:07:07;97747.94;;;30.33;25.50
54816;BME280;40715;55.752;37.884;2023-03-31T15:09:34;97753.81;;;30.30;25.92
54816;BME280;40715;55.752;37.884;2023-03-31T15:12:06;97752.94;;;30.29;25.82
54816;BME280;40715;55.752;37.884;2023-03-31T15:14:54;97749.00;;;30.45;25.83
54816;BME280;40715;55.752;37.884;2023-03-31T15:17:31;97735.19;;;30.34;26.15
54816;BME280;40715;55.752;37.884;2023-03-31T15:22:47;97738.09;;;30.25;25.56
54816;BME280;40715;55.752;37.884;2023-03-31T15:25:14;97733.91;;;30.23;25.67
54816;BME280;40715;55.752;37.884;2023-03-31T15:27:50;97745.63;;;30.23;25.68
54816;BME280;40715;55.752;37.884;2023-03-31T15:30:23;97741.88;;;30.24;25.41
54816;BME280;40715;55.752;37.884;2023-03-31T15:32:52;97734.53;;;30.18;25.60
54816;BME280;40715;55.752;37.884;2023-03-31T15:35:32;97740.63;;;30.20;25.55
54816;BME280;40715;55.752;37.884;2023-03-31T15:38:03;97731.63;;;30.13;25.17
54816;BME280;40715;55.752;37.884;2023-03-31T15:40:38;97742.91;;;30.17;25.36
54816;BME280;40715;55.752;37.884;2023-03-31T15:43:25;97739.56;;;30.21;25.27
54816;BME280;40715;55.752;37.884;2023-03-31T15:45:58;97741.22;;;30.16;25.11
54816;BME280;40715;55.752;37.884;2023-03-31T15:48:34;97742.88;;;30.10;25.10
54816;BME280;40715;55.752;37.884;2023-03-31T15:51:17;97740.38;;;30.15;25.00
54816;BME280;40715;55.752;37.884;2023-03-31T15:53:52;97739.97;;;30.11;25.41
54816;BME280;40715;55.752;37.884;2023-03-31T15:58:58;97738.91;;;30.06;25.21
54816;BME280;40715;55.752;37.884;2023-03-31T16:01:34;97746.22;;;30.05;25.47
54816;BME280;40715;55.752;37.884;2023-03-31T16:04:12;97749.16;;;30.10;25.06
54816;BME280;40715;55.752;37.884;2023-03-31T16:07:15;97742.28;;;30.15;25.38